Time;durP1;ratioP1;P1;durP2;ratioP2;P2;SDS_P1;SDS_P2;PMS_P1;PMS_P2;Temp;Humidity;BMP_temperature;BMP_pressure;BME280_temperature;BME280_humidity;BME280_pressure;Samples;Min_cycle;Max_cycle;Signal;HPM_P1;HPM_P2
2021/10/06 00:02:22;;;;;;;;;;;;;;;17.16;60.99;98751.08;111995;1195;66861;-82
2021/10/06 00:04:49;;;;;;;;;;;;;;;17.17;60.97;98758.20;112021;1195;61813;-83
2021/10/06 00:07:16;;;;;;;;;;;;;;;17.17;60.84;98762.52;111984;1195;63869;-83
2021/10/06 00:09:42;;;;;;;;;;;;;;;17.17;60.76;98765.02;112024;1195;61859;-83
2021/10/06 00:12:09;;;;;;;;;;;;;;;17.18;60.64;98769.45;112034;1196;61875;-83
2021/10/06 00:14:35;;;;;;;;;;;;;;;17.19;60.53;98778.52;112032;1195;61807;-83
2021/10/06 00:17:02;;;;;;;;;;;;;;;17.21;60.59;98781.33;111996;1195;62437;-82
2021/10/06 00:19:28;;;;;;;;;;;;;;;17.23;60.60;98783.45;111975;1195;62687;-83
2021/10/06 00:21:57;;;;;;;;;;;;;;;17.21;60.50;98782.08;112040;1196;61850;-83
2021/10/06 00:24:24;;;;;;;;;;;;;;;17.19;60.51;98786.05;112020;1195;61887;-82
2021/10/06 00:26:51;;;;;;;;;;;;;;;17.16;60.48;98787.50;111986;1195;65412;-82
2021/10/06 00:29:18;;;;;;;;;;;;;;;17.15;60.42;98784.94;112046;1195;61912;-83
2021/10/06 00:31:44;;;;;;;;;;;;;;;17.13;60.46;98783.70;111989;1196;62668;-83
2021/10/06 00:34:11;;;;;;;;;;;;;;;17.11;60.43;98790.31;112023;1195;61892;-83
2021/10/06 00:36:38;;;;;;;;;;;;;;;17.10;60.56;98797.84;112010;1195;61865;-83
2021/10/06 00:39:04;;;;;;;;;;;;;;;17.08;60.60;98804.13;112032;1196;66821;-83
2021/10/06 00:41:31;;;;;;;;;;;;;;;17.08;60.52;98805.15;112024;1196;61847;-82
2021/10/06 00:43:57;;;;;;;;;;;;;;;17.10;60.50;98806.45;112001;1195;64982;-82
2021/10/06 00:46:24;;;;;;;;;;;;;;;17.11;60.57;98812.08;111988;1195;61901;-83
2021/10/06 00:48:50;;;;;;;;;;;;;;;17.12;60.50;98811.67;112036;1196;61721;-83
2021/10/06 00:51:17;;;;;;;;;;;;;;;17.14;60.58;98807.91;111996;1195;61754;-82
2021/10/06 00:53:43;;;;;;;;;;;;;;;17.14;60.46;98793.36;111949;1195;61875;-84
2021/10/06 00:56:10;;;;;;;;;;;;;;;17.14;60.45;98790.16;112016;1195;61859;-82
2021/10/06 00:58:36;;;;;;;;;;;;;;;17.16;60.34;98791.70;111990;1195;61890;-82
2021/10/06 01:01:04;;;;;;;;;;;;;;;17.18;60.37;98788.61;111995;1195;61773;-82
2021/10/06 01:03:30;;;;;;;;;;;;;;;17.20;60.21;98786.14;111999;1195;67806;-84
2021/10/06 01:05:57;;;;;;;;;;;;;;;17.21;60.10;98785.61;111989;1195;61847;-84
2021/10/06 01:08:24;;;;;;;;;;;;;;;17.22;60.06;98787.67;112026;1195;65400;-82
2021/10/06 01:10:52;;;;;;;;;;;;;;;17.22;60.03;98792.20;111957;1195;61878;-84
2021/10/06 01:13:18;;;;;;;;;;;;;;;17.21;60.02;98794.42;112050;1195;61821;-84
2021/10/06 01:15:45;;;;;;;;;;;;;;;17.21;59.86;98798.73;111991;1195;61872;-83
2021/10/06 01:18:11;;;;;;;;;;;;;;;17.22;60.00;98795.18;111991;1195;61773;-84
2021/10/06 01:20:38;;;;;;;;;;;;;;;17.22;59.93;98795.73;111971;1196;64994;-84
2021/10/06 01:23:05;;;;;;;;;;;;;;;17.23;59.98;98797.85;111990;1195;61872;-84
2021/10/06 01:25:31;;;;;;;;;;;;;;;17.22;59.89;98797.69;112008;1195;61886;-83
2021/10/06 01:27:58;;;;;;;;;;;;;;;17.21;59.95;98793.66;112037;1195;61841;-82
2021/10/06 01:30:24;;;;;;;;;;;;;;;17.20;60.02;98800.67;112017;1195;61757;-82
2021/10/06 01:32:51;;;;;;;;;;;;;;;17.17;59.95;98800.39;111939;1195;61837;-82
2021/10/06 01:35:17;;;;;;;;;;;;;;;17.15;60.15;98806.73;112016;1195;61866;-82
2021/10/06 01:37:44;;;;;;;;;;;;;;;17.10;60.33;98807.66;111997;1195;62304;-82
2021/10/06 01:40:16;;;;;;;;;;;;;;;17.07;60.32;98811.02;111877;1196;66728;-82
2021/10/06 01:42:43;;;;;;;;;;;;;;;17.04;60.25;98805.57;111841;1196;61869;-82
2021/10/06 01:45:17;;;;;;;;;;;;;;;17.02;60.17;98804.04;111837;1195;62634;-83
2021/10/06 01:47:44;;;;;;;;;;;;;;;17.01;60.14;98801.23;111937;1195;61816;-82
2021/10/06 01:50:10;;;;;;;;;;;;;;;17.00;60.15;98803.25;112034;1195;61860;-82
2021/10/06 01:52:37;;;;;;;;;;;;;;;17.00;60.00;98805.98;111976;1195;65460;-83
2021/10/06 01:55:04;;;;;;;;;;;;;;;17.00;60.07;98806.02;111920;1196;61853;-82
2021/10/06 01:57:30;;;;;;;;;;;;;;;16.97;60.13;98800.49;111885;1197;62352;-84
2021/10/06 01:59:57;;;;;;;;;;;;;;;16.95;60.24;98797.27;111934;1195;61878;-82
2021/10/06 02:02:23;;;;;;;;;;;;;;;16.94;60.39;98794.55;112008;1195;61865;-82
2021/10/06 02:04:49;;;;;;;;;;;;;;;16.93;60.32;98793.94;111938;1195;61846;-82
2021/10/06 02:07:16;;;;;;;;;;;;;;;16.91;60.61;98803.98;111846;1196;61992;-82
2021/10/06 02:09:42;;;;;;;;;;;;;;;16.87;60.64;98805.61;111947;1196;61892;-83
2021/10/06 02:12:09;;;;;;;;;;;;;;;16.85;60.84;98813.20;111908;1195;62277;-82
2021/10/06 02:14:35;;;;;;;;;;;;;;;16.81;60.92;98811.77;111930;1195;61807;-82
2021/10/06 02:17:02;;;;;;;;;;;;;;;16.77;60.91;98801.70;111937;1195;61838;-82
2021/10/06 02:19:29;;;;;;;;;;;;;;;16.76;60.89;98805.59;111953;1196;61846;-83
2021/10/06 02:21:55;;;;;;;;;;;;;;;16.75;60.73;98813.05;111948;1195;61757;-82
2021/10/06 02:24:22;;;;;;;;;;;;;;;16.73;60.98;98815.94;111948;1196;61800;-82
2021/10/06 02:26:48;;;;;;;;;;;;;;;16.71;61.03;98816.66;111970;1195;61875;-82
2021/10/06 02:29:14;;;;;;;;;;;;;;;16.69;61.04;98812.15;111939;1195;61785;-82
2021/10/06 02:31:41;;;;;;;;;;;;;;;16.67;61.06;98809.49;111986;1195;61948;-82
2021/10/06 02:34:07;;;;;;;;;;;;;;;16.65;61.26;98806.63;111923;1196;61889;-82
2021/10/06 02:36:34;;;;;;;;;;;;;;;16.62;61.38;98805.60;111928;1195;62522;-82
2021/10/06 02:39:01;;;;;;;;;;;;;;;16.61;61.61;98808.63;111927;1196;61865;-82
2021/10/06 02:41:27;;;;;;;;;;;;;;;16.58;61.77;98803.67;111891;1195;66842;-82
2021/10/06 02:43:54;;;;;;;;;;;;;;;16.55;61.82;98808.95;112002;1195;61875;-82
2021/10/06 02:46:20;;;;;;;;;;;;;;;16.53;62.01;98808.51;111973;1196;63942;-82
2021/10/06 02:48:47;;;;;;;;;;;;;;;16.49;62.13;98804.52;111969;1195;61852;-83
2021/10/06 02:51:13;;;;;;;;;;;;;;;16.45;62.26;98803.96;111927;1196;61908;-82
2021/10/06 02:53:40;;;;;;;;;;;;;;;16.41;62.61;98803.80;111914;1196;61872;-82
2021/10/06 02:56:06;;;;;;;;;;;;;;;16.37;62.78;98809.75;111890;1196;61875;-83
2021/10/06 02:58:33;;;;;;;;;;;;;;;16.34;62.90;98815.31;111959;1196;61852;-83
2021/10/06 03:00:59;;;;;;;;;;;;;;;16.30;63.15;98819.58;111906;1196;61901;-82
2021/10/06 03:03:26;;;;;;;;;;;;;;;16.26;63.34;98821.92;111949;1195;61861;-82
2021/10/06 03:05:52;;;;;;;;;;;;;;;16.22;63.60;98821.98;111945;1195;61728;-82
2021/10/06 03:08:19;;;;;;;;;;;;;;;16.18;63.58;98824.09;111944;1195;61770;-83
2021/10/06 03:10:46;;;;;;;;;;;;;;;16.14;63.90;98830.92;111961;1196;61814;-83
2021/10/06 03:13:12;;;;;;;;;;;;;;;16.10;64.21;98832.39;111765;1197;61943;-83
2021/10/06 03:15:39;;;;;;;;;;;;;;;16.07;64.22;98830.75;111959;1196;61838;-82
2021/10/06 03:18:05;;;;;;;;;;;;;;;16.03;64.49;98835.54;111985;1197;65535;-83
2021/10/06 03:20:32;;;;;;;;;;;;;;;15.99;64.75;98844.30;111969;1196;61807;-83
2021/10/06 03:22:58;;;;;;;;;;;;;;;15.95;65.66;98840.92;111938;1197;61889;-83
2021/10/06 03:25:25;;;;;;;;;;;;;;;15.89;66.64;98842.73;111906;1196;61835;-83
2021/10/06 03:27:51;;;;;;;;;;;;;;;15.83;67.46;98842.41;111947;1196;61837;-83
2021/10/06 03:30:18;;;;;;;;;;;;;;;15.76;67.88;98842.48;111936;1196;61785;-83
2021/10/06 03:32:45;;;;;;;;;;;;;;;15.68;68.59;98842.80;111938;1196;61791;-83
2021/10/06 03:35:11;;;;;;;;;;;;;;;15.59;69.13;98843.42;111902;1196;62424;-83
2021/10/06 03:37:38;;;;;;;;;;;;;;;15.52;69.47;98845.30;111987;1196;61925;-81
2021/10/06 03:40:06;;;;;;;;;;;;;;;15.47;69.97;98845.80;112011;1196;61802;-82
2021/10/06 03:42:32;;;;;;;;;;;;;;;15.41;70.25;98845.11;111918;1196;66976;-82
2021/10/06 03:44:59;;;;;;;;;;;;;;;15.35;70.50;98850.44;111957;1195;61865;-82
2021/10/06 03:47:25;;;;;;;;;;;;;;;15.30;70.78;98856.90;111961;1195;61810;-83
2021/10/06 03:49:52;;;;;;;;;;;;;;;15.28;70.91;98858.86;111918;1196;61860;-83
2021/10/06 03:52:18;;;;;;;;;;;;;;;15.27;71.28;98858.44;111947;1196;61841;-83
2021/10/06 03:54:45;;;;;;;;;;;;;;;15.27;71.92;98861.70;111887;1196;61807;-83
2021/10/06 03:57:11;;;;;;;;;;;;;;;15.25;72.51;98868.33;111964;1196;61898;-83
2021/10/06 03:59:38;;;;;;;;;;;;;;;15.24;73.12;98875.40;111944;1196;61876;-82
2021/10/06 04:02:04;;;;;;;;;;;;;;;15.21;73.09;98877.98;111932;1196;61782;-83
2021/10/06 04:04:31;;;;;;;;;;;;;;;15.18;73.28;98872.16;111933;1196;61839;-85
2021/10/06 04:06:57;;;;;;;;;;;;;;;15.17;73.57;98872.98;111990;1196;61795;-82
2021/10/06 04:09:24;;;;;;;;;;;;;;;15.14;73.62;98869.15;111939;1196;61864;-84
2021/10/06 04:11:50;;;;;;;;;;;;;;;15.10;74.31;98862.29;112010;1196;61965;-84
2021/10/06 04:14:17;;;;;;;;;;;;;;;15.02;74.64;98859.38;111946;1196;61842;-83
2021/10/06 04:16:43;;;;;;;;;;;;;;;14.98;74.99;98866.08;112026;1195;61830;-82
2021/10/06 04:19:10;;;;;;;;;;;;;;;14.91;75.37;98872.16;111908;1196;61853;-83
2021/10/06 04:21:36;;;;;;;;;;;;;;;14.88;75.86;98876.40;111920;1196;61885;-81
2021/10/06 04:24:03;;;;;;;;;;;;;;;14.87;76.31;98877.94;111976;1196;61856;-81
2021/10/06 04:26:29;;;;;;;;;;;;;;;14.83;76.96;98881.85;111839;1196;61751;-81
2021/10/06 04:28:56;;;;;;;;;;;;;;;14.79;77.37;98891.48;111943;1195;62572;-82
2021/10/06 04:31:22;;;;;;;;;;;;;;;14.75;78.00;98896.65;111756;1196;61948;-83
2021/10/06 04:33:49;;;;;;;;;;;;;;;14.70;78.16;98900.64;111920;1196;61849;-84
2021/10/06 04:36:16;;;;;;;;;;;;;;;14.65;78.70;98901.55;111965;1196;61843;-84
2021/10/06 04:38:42;;;;;;;;;;;;;;;14.60;78.93;98904.86;111956;1197;61877;-84
2021/10/06 04:41:09;;;;;;;;;;;;;;;14.57;79.26;98907.70;111878;1196;61767;-85
2021/10/06 04:43:36;;;;;;;;;;;;;;;14.52;79.44;98906.61;111886;1195;67710;-83
2021/10/06 04:46:02;;;;;;;;;;;;;;;14.50;79.68;98908.89;111996;1196;61838;-84
2021/10/06 04:48:29;;;;;;;;;;;;;;;14.50;79.93;98908.35;112000;1196;61928;-83
2021/10/06 04:50:55;;;;;;;;;;;;;;;14.51;80.15;98907.24;111732;1196;61876;-83
2021/10/06 04:53:22;;;;;;;;;;;;;;;14.50;80.33;98904.95;111924;1196;61831;-83
2021/10/06 04:55:48;;;;;;;;;;;;;;;14.50;80.40;98909.80;111901;1196;61840;-85
2021/10/06 04:58:15;;;;;;;;;;;;;;;14.49;80.69;98917.95;111940;1196;61903;-84
2021/10/06 05:00:41;;;;;;;;;;;;;;;14.47;80.71;98922.75;111904;1196;61923;-85
2021/10/06 05:03:12;;;;;;;;;;;;;;;14.46;80.84;98925.91;111905;1196;61838;-84
2021/10/06 05:05:39;;;;;;;;;;;;;;;14.44;81.21;98924.04;111959;1196;61846;-84
2021/10/06 05:08:07;;;;;;;;;;;;;;;14.43;81.39;98927.95;111911;1195;66649;-84
2021/10/06 05:10:33;;;;;;;;;;;;;;;14.40;81.54;98932.13;111941;1196;61853;-83
2021/10/06 05:13:00;;;;;;;;;;;;;;;14.38;81.59;98933.72;111930;1196;62905;-84
2021/10/06 05:15:27;;;;;;;;;;;;;;;14.37;81.49;98937.95;111928;1196;61901;-84
2021/10/06 05:17:54;;;;;;;;;;;;;;;14.35;81.61;98941.63;111977;1195;61877;-84
2021/10/06 05:20:20;;;;;;;;;;;;;;;14.32;81.83;98943.46;111921;1197;65782;-82
2021/10/06 05:22:47;;;;;;;;;;;;;;;14.28;81.84;98944.88;111844;1196;61788;-81
2021/10/06 05:25:13;;;;;;;;;;;;;;;14.24;82.05;98948.62;111914;1195;61872;-81
2021/10/06 05:27:40;;;;;;;;;;;;;;;14.20;82.48;98951.12;111896;1195;61908;-83
2021/10/06 05:30:08;;;;;;;;;;;;;;;14.14;82.76;98947.89;111920;1196;62564;-81
2021/10/06 05:32:34;;;;;;;;;;;;;;;14.09;83.08;98950.64;111893;1196;67550;-82
2021/10/06 05:35:02;;;;;;;;;;;;;;;14.03;83.42;98949.45;111967;1196;62540;-82
2021/10/06 05:37:28;;;;;;;;;;;;;;;13.98;83.92;98956.13;111953;1196;62661;-82
2021/10/06 05:39:55;;;;;;;;;;;;;;;13.93;84.09;98957.40;111803;1196;63596;-82
2021/10/06 05:42:21;;;;;;;;;;;;;;;13.90;84.44;98954.27;111956;1195;62431;-82
2021/10/06 05:44:48;;;;;;;;;;;;;;;13.89;84.69;98957.60;111904;1195;61898;-82
2021/10/06 05:47:14;;;;;;;;;;;;;;;13.86;84.94;98954.60;111896;1195;61865;-82
2021/10/06 05:49:41;;;;;;;;;;;;;;;13.81;85.00;98951.20;111903;1196;61866;-82
2021/10/06 05:52:07;;;;;;;;;;;;;;;13.78;85.28;98948.98;111881;1196;61811;-82
2021/10/06 05:54:34;;;;;;;;;;;;;;;13.74;85.81;98950.58;111885;1196;61867;-82
2021/10/06 05:57:01;;;;;;;;;;;;;;;13.69;86.08;98951.86;111910;1195;66828;-82
2021/10/06 05:59:27;;;;;;;;;;;;;;;13.65;86.19;98952.20;111915;1196;61800;-82
2021/10/06 06:01:54;;;;;;;;;;;;;;;13.61;86.25;98957.36;111890;1196;61862;-82
2021/10/06 06:04:21;;;;;;;;;;;;;;;13.58;86.34;98958.96;111911;1195;61852;-82
2021/10/06 06:06:47;;;;;;;;;;;;;;;13.58;86.64;98963.44;111946;1196;61802;-83
2021/10/06 06:09:14;;;;;;;;;;;;;;;13.56;86.85;98970.92;111836;1195;61916;-82
2021/10/06 06:11:40;;;;;;;;;;;;;;;13.54;87.18;98975.53;112037;1195;61875;-83
2021/10/06 06:14:07;;;;;;;;;;;;;;;13.52;87.08;98982.30;111817;1196;61789;-83
2021/10/06 06:16:34;;;;;;;;;;;;;;;13.52;87.28;98982.18;111872;1196;61855;-82
2021/10/06 06:19:00;;;;;;;;;;;;;;;13.52;87.36;98986.44;111880;1196;61760;-82
2021/10/06 06:21:27;;;;;;;;;;;;;;;13.53;87.53;98990.28;111788;1195;61855;-81
2021/10/06 06:23:53;;;;;;;;;;;;;;;13.54;87.61;98995.36;111853;1195;61879;-83
2021/10/06 06:26:20;;;;;;;;;;;;;;;13.58;87.68;99001.30;111892;1196;61901;-82
2021/10/06 06:28:47;;;;;;;;;;;;;;;13.64;87.70;98999.92;111853;1195;61782;-83
2021/10/06 06:31:13;;;;;;;;;;;;;;;13.69;87.88;99004.89;111821;1196;61765;-82
2021/10/06 06:33:40;;;;;;;;;;;;;;;13.73;87.86;99000.50;111948;1196;65532;-82
2021/10/06 06:36:07;;;;;;;;;;;;;;;13.77;87.93;99004.20;111873;1195;61781;-82
2021/10/06 06:38:33;;;;;;;;;;;;;;;13.83;87.92;99007.19;111919;1195;64011;-82
2021/10/06 06:41:00;;;;;;;;;;;;;;;13.88;87.97;99008.73;111887;1196;61921;-82
2021/10/06 06:43:26;;;;;;;;;;;;;;;13.91;87.96;99012.40;111866;1195;61862;-83
2021/10/06 06:45:53;;;;;;;;;;;;;;;13.96;87.91;99018.80;111889;1196;61856;-84
2021/10/06 06:48:19;;;;;;;;;;;;;;;14.00;88.10;99025.97;111889;1196;61902;-83
2021/10/06 06:50:50;;;;;;;;;;;;;;;14.05;87.99;99023.47;111887;1196;61907;-85
2021/10/06 06:53:17;;;;;;;;;;;;;;;14.09;87.99;99025.07;111871;1195;61788;-83
2021/10/06 06:55:44;;;;;;;;;;;;;;;14.13;88.11;99028.91;111920;1196;61840;-82
2021/10/06 06:58:10;;;;;;;;;;;;;;;14.15;88.19;99034.21;111936;1196;66851;-82
2021/10/06 07:00:37;;;;;;;;;;;;;;;14.19;88.35;99036.99;111893;1195;62473;-85
2021/10/06 07:03:03;;;;;;;;;;;;;;;14.22;88.42;99041.35;111982;1196;61840;-82
2021/10/06 07:05:30;;;;;;;;;;;;;;;14.26;88.55;99049.46;111793;1196;61924;-83
2021/10/06 07:07:57;;;;;;;;;;;;;;;14.27;88.59;99048.48;111821;1196;61905;-84
2021/10/06 07:10:23;;;;;;;;;;;;;;;14.29;88.76;99055.23;111980;1196;67622;-83
2021/10/06 07:12:50;;;;;;;;;;;;;;;14.34;88.82;99054.85;111910;1195;61782;-83
2021/10/06 07:15:16;;;;;;;;;;;;;;;14.40;88.97;99057.36;111925;1195;62714;-85
2021/10/06 07:17:43;;;;;;;;;;;;;;;14.46;88.93;99060.33;111963;1196;61872;-84
2021/10/06 07:20:10;;;;;;;;;;;;;;;14.52;88.93;99063.79;111955;1195;61841;-83
2021/10/06 07:22:36;;;;;;;;;;;;;;;14.56;88.66;99062.24;111922;1196;67798;-83
2021/10/06 07:25:03;;;;;;;;;;;;;;;14.59;88.62;99064.86;111938;1196;61804;-82
2021/10/06 07:27:30;;;;;;;;;;;;;;;14.61;88.65;99067.54;111869;1196;63675;-83
2021/10/06 07:29:57;;;;;;;;;;;;;;;14.62;88.89;99069.25;111968;1195;61867;-82
2021/10/06 07:32:23;;;;;;;;;;;;;;;14.63;88.96;99068.80;111998;1197;61836;-83
2021/10/06 07:34:50;;;;;;;;;;;;;;;14.64;88.86;99070.67;111974;1196;61796;-82
2021/10/06 07:37:16;;;;;;;;;;;;;;;14.65;89.08;99074.89;111990;1196;61889;-82
2021/10/06 07:39:43;;;;;;;;;;;;;;;14.67;89.07;99080.14;111939;1196;61892;-84
2021/10/06 07:42:10;;;;;;;;;;;;;;;14.69;89.30;99082.75;111915;1195;61872;-83
2021/10/06 07:44:36;;;;;;;;;;;;;;;14.72;89.29;99088.81;111927;1195;61827;-82
2021/10/06 07:47:03;;;;;;;;;;;;;;;14.73;89.41;99089.98;111947;1197;61832;-83
2021/10/06 07:49:29;;;;;;;;;;;;;;;14.75;89.45;99089.12;111947;1195;61775;-83
2021/10/06 07:51:56;;;;;;;;;;;;;;;14.76;89.47;99090.58;111905;1195;61842;-83
2021/10/06 07:54:22;;;;;;;;;;;;;;;14.78;89.68;99092.95;111917;1197;61853;-83
2021/10/06 07:56:49;;;;;;;;;;;;;;;14.78;89.67;99091.85;111781;1196;61927;-83
2021/10/06 07:59:15;;;;;;;;;;;;;;;14.79;89.60;99090.33;111955;1195;62314;-83
2021/10/06 08:01:43;;;;;;;;;;;;;;;14.83;89.58;99089.52;111936;1196;61869;-84
2021/10/06 08:04:10;;;;;;;;;;;;;;;14.88;89.64;99089.98;111904;1196;65004;-83
2021/10/06 08:06:36;;;;;;;;;;;;;;;14.89;89.61;99088.64;111788;1196;61848;-83
2021/10/06 08:09:05;;;;;;;;;;;;;;;14.90;89.81;99096.25;111903;1196;61828;-83
2021/10/06 08:11:34;;;;;;;;;;;;;;;14.91;90.08;99097.36;111949;1196;67451;-83
2021/10/06 08:14:02;;;;;;;;;;;;;;;14.92;90.02;99095.13;111928;1195;61850;-84
2021/10/06 08:16:28;;;;;;;;;;;;;;;14.93;89.96;99094.55;111915;1195;65487;-83
2021/10/06 08:18:55;;;;;;;;;;;;;;;14.95;90.11;99097.99;111922;1197;61799;-83
2021/10/06 08:21:21;;;;;;;;;;;;;;;14.98;90.27;99100.61;111901;1196;61840;-83
2021/10/06 08:23:48;;;;;;;;;;;;;;;15.01;90.29;99101.63;111887;1195;61824;-82
2021/10/06 08:26:14;;;;;;;;;;;;;;;15.03;90.32;99099.78;111907;1197;61927;-82
2021/10/06 08:28:41;;;;;;;;;;;;;;;15.05;90.09;99101.23;111902;1196;61889;-82
2021/10/06 08:31:07;;;;;;;;;;;;;;;15.06;90.11;99100.77;111881;1195;61858;-82
2021/10/06 08:33:34;;;;;;;;;;;;;;;15.08;90.16;99100.33;111956;1195;61851;-82
2021/10/06 08:36:00;;;;;;;;;;;;;;;15.07;90.09;99098.25;111905;1196;61861;-82
2021/10/06 08:38:27;;;;;;;;;;;;;;;15.05;90.27;99104.98;111894;1196;61890;-81
2021/10/06 08:40:54;;;;;;;;;;;;;;;15.06;90.42;99109.21;111942;1195;64995;-82
2021/10/06 08:43:20;;;;;;;;;;;;;;;15.07;90.32;99111.66;111817;1195;62011;-82
2021/10/06 08:45:47;;;;;;;;;;;;;;;15.06;90.58;99112.58;111921;1195;61777;-82
2021/10/06 08:48:13;;;;;;;;;;;;;;;15.05;90.72;99111.29;111927;1197;66795;-82
2021/10/06 08:50:41;;;;;;;;;;;;;;;15.04;90.58;99111.22;111860;1195;61805;-82
2021/10/06 08:53:07;;;;;;;;;;;;;;;15.02;90.62;99111.17;111917;1195;62649;-82
2021/10/06 08:55:34;;;;;;;;;;;;;;;15.01;90.69;99111.42;111913;1195;61841;-82
2021/10/06 08:58:02;;;;;;;;;;;;;;;15.01;90.69;99110.93;111927;1196;61840;-82
2021/10/06 09:00:30;;;;;;;;;;;;;;;15.00;90.66;99110.81;111960;1195;67426;-82
2021/10/06 09:03:06;;;;;;;;;;;;;;;15.00;90.68;99108.64;111917;1195;61843;-81
2021/10/06 09:05:32;;;;;;;;;;;;;;;15.02;90.69;99106.70;111892;1195;62648;-82
2021/10/06 09:08:00;;;;;;;;;;;;;;;15.03;90.51;99104.43;111929;1196;61855;-82
2021/10/06 09:10:30;;;;;;;;;;;;;;;15.03;90.64;99103.21;111911;1195;61876;-84
2021/10/06 09:12:58;;;;;;;;;;;;;;;15.01;90.56;99102.34;111955;1196;65575;-83
2021/10/06 09:15:25;;;;;;;;;;;;;;;15.01;90.70;99101.25;111894;1196;61836;-83
2021/10/06 09:17:53;;;;;;;;;;;;;;;15.04;90.71;99103.09;111905;1196;63557;-82
2021/10/06 09:20:20;;;;;;;;;;;;;;;15.08;90.92;99107.08;111915;1196;61867;-82
2021/10/06 09:22:59;;;;;;;;;;;;;;;15.09;90.76;99107.02;111935;1195;61865;-82
2021/10/06 09:25:30;;;;;;;;;;;;;;;15.12;90.76;99105.50;111938;1195;67856;-83
2021/10/06 09:31:19;;;;;;;;;;;;;;;15.11;90.42;99105.22;111927;1196;65220;-84
2021/10/06 09:34:08;;;;;;;;;;;;;;;15.14;90.38;99105.89;111961;1195;61880;-82
2021/10/06 09:36:36;;;;;;;;;;;;;;;15.16;90.41;99115.20;111819;1196;61797;-82
2021/10/06 09:42:39;;;;;;;;;;;;;;;15.29;90.56;99116.27;111961;1196;61746;-82
2021/10/06 09:45:05;;;;;;;;;;;;;;;15.36;90.33;99116.88;111887;1195;65223;-82
2021/10/06 09:47:35;;;;;;;;;;;;;;;15.40;89.96;99116.45;111944;1195;61883;-83
2021/10/06 09:50:02;;;;;;;;;;;;;;;15.37;89.95;99123.61;111904;1195;61865;-83
2021/10/06 09:52:31;;;;;;;;;;;;;;;15.38;90.09;99128.20;111895;1196;66783;-83
2021/10/06 09:54:59;;;;;;;;;;;;;;;15.42;90.22;99129.62;111920;1195;61787;-82
2021/10/06 09:57:30;;;;;;;;;;;;;;;15.44;90.13;99132.72;111917;1196;65025;-82
2021/10/06 09:59:59;;;;;;;;;;;;;;;15.45;90.26;99137.66;111842;1195;61886;-84
2021/10/06 10:02:26;;;;;;;;;;;;;;;15.46;90.39;99146.55;111954;1195;60565;-83
2021/10/06 10:04:54;;;;;;;;;;;;;;;15.46;90.23;99147.18;111990;1195;66515;-84
2021/10/06 10:07:22;;;;;;;;;;;;;;;15.46;90.13;99151.50;111893;1195;61906;-86
2021/10/06 10:09:49;;;;;;;;;;;;;;;15.48;90.33;99153.52;111977;1196;63932;-84
2021/10/06 10:12:17;;;;;;;;;;;;;;;15.48;90.43;99155.50;111887;1195;62236;-84
2021/10/06 10:14:44;;;;;;;;;;;;;;;15.50;90.49;99156.73;111914;1195;61836;-83
2021/10/06 10:17:10;;;;;;;;;;;;;;;15.53;90.72;99159.16;111870;1196;66873;-84
2021/10/06 10:19:37;;;;;;;;;;;;;;;15.57;90.83;99161.48;111836;1196;61865;-82
2021/10/06 10:22:04;;;;;;;;;;;;;;;15.64;90.60;99161.30;111861;1196;64021;-83
2021/10/06 10:24:41;;;;;;;;;;;;;;;15.70;90.64;99163.47;111834;1196;61873;-82
2021/10/06 10:27:08;;;;;;;;;;;;;;;15.79;90.52;99167.73;111847;1196;61876;-83
2021/10/06 10:29:35;;;;;;;;;;;;;;;15.86;90.27;99163.55;111814;1196;66695;-83
2021/10/06 10:32:10;;;;;;;;;;;;;;;15.90;90.22;99164.64;111853;1196;61866;-83
2021/10/06 10:34:55;;;;;;;;;;;;;;;15.95;89.87;99161.11;111854;1196;64022;-83
2021/10/06 10:37:42;;;;;;;;;;;;;;;15.99;89.98;99160.98;111822;1196;61946;-83
2021/10/06 10:40:28;;;;;;;;;;;;;;;16.05;90.09;99158.73;111805;1195;61743;-83
2021/10/06 10:43:06;;;;;;;;;;;;;;;16.10;89.89;99156.94;111802;1196;66858;-83
2021/10/06 10:45:50;;;;;;;;;;;;;;;16.15;89.76;99156.73;111846;1196;61840;-83
2021/10/06 10:48:21;;;;;;;;;;;;;;;16.16;89.41;99156.94;111779;1196;62669;-83
2021/10/06 10:50:48;;;;;;;;;;;;;;;16.20;89.51;99156.08;111818;1195;61836;-83
2021/10/06 10:53:21;;;;;;;;;;;;;;;16.26;89.39;99156.08;111878;1196;61987;-83
2021/10/06 10:55:58;;;;;;;;;;;;;;;16.30;89.03;99150.23;111904;1196;66722;-82
2021/10/06 10:58:29;;;;;;;;;;;;;;;16.30;88.83;99154.90;111884;1196;61866;-82
2021/10/06 11:00:57;;;;;;;;;;;;;;;16.33;88.68;99154.05;111911;1196;62607;-82
2021/10/06 11:03:23;;;;;;;;;;;;;;;16.34;88.57;99155.41;111882;1196;61860;-83
2021/10/06 11:05:52;;;;;;;;;;;;;;;16.33;88.65;99158.21;111877;1196;61792;-82
2021/10/06 11:08:28;;;;;;;;;;;;;;;16.30;88.61;99160.27;111797;1196;66710;-83
2021/10/06 11:11:14;;;;;;;;;;;;;;;16.24;88.69;99163.59;111887;1196;61926;-83
2021/10/06 11:13:46;;;;;;;;;;;;;;;16.21;88.92;99161.72;111868;1196;74145;-82
2021/10/06 11:16:13;;;;;;;;;;;;;;;16.20;89.00;99162.03;111898;1196;61866;-83
2021/10/06 11:18:46;;;;;;;;;;;;;;;16.22;89.00;99164.69;112169;1196;61916;-82
2021/10/06 11:21:29;;;;;;;;;;;;;;;16.29;88.85;99161.27;111867;1196;65463;-83
2021/10/06 11:23:57;;;;;;;;;;;;;;;16.31;88.59;99157.16;111857;1196;61865;-82
2021/10/06 11:26:29;;;;;;;;;;;;;;;16.29;88.64;99160.36;111865;1196;63914;-82
2021/10/06 11:28:57;;;;;;;;;;;;;;;16.31;88.76;99161.79;111852;1195;61816;-83
2021/10/06 11:31:25;;;;;;;;;;;;;;;16.33;88.58;99162.85;111851;1196;61917;-83
2021/10/06 11:33:52;;;;;;;;;;;;;;;16.36;88.83;99162.91;111828;1196;65394;-83
2021/10/06 11:36:22;;;;;;;;;;;;;;;16.40;88.74;99160.81;111793;1196;61855;-83
2021/10/06 11:38:50;;;;;;;;;;;;;;;16.44;88.75;99156.85;111897;1196;62683;-83
2021/10/06 11:41:18;;;;;;;;;;;;;;;16.51;88.90;99156.41;111868;1196;61726;-83
2021/10/06 11:43:50;;;;;;;;;;;;;;;16.54;88.94;99157.38;111897;1196;61799;-83
2021/10/06 11:46:22;;;;;;;;;;;;;;;16.54;88.88;99156.34;111923;1196;65744;-83
2021/10/06 11:48:49;;;;;;;;;;;;;;;16.45;88.50;99159.64;111890;1196;61760;-83
2021/10/06 11:51:16;;;;;;;;;;;;;;;16.34;88.42;99155.46;111900;1196;64894;-83
2021/10/06 11:53:47;;;;;;;;;;;;;;;16.27;88.66;99153.33;111752;1196;61838;-83
2021/10/06 11:56:27;;;;;;;;;;;;;;;16.28;88.56;99153.29;111882;1196;61787;-84
2021/10/06 11:58:54;;;;;;;;;;;;;;;16.29;88.21;99153.31;111847;1196;66715;-84
2021/10/06 12:01:21;;;;;;;;;;;;;;;16.33;88.11;99158.20;111805;1196;61842;-84
2021/10/06 12:03:47;;;;;;;;;;;;;;;16.33;88.03;99158.95;111897;1196;64133;-82
2021/10/06 12:06:18;;;;;;;;;;;;;;;16.27;87.92;99158.17;111876;1195;61865;-84
2021/10/06 12:08:46;;;;;;;;;;;;;;;16.21;87.92;99158.35;111932;1195;61759;-82
2021/10/06 12:11:14;;;;;;;;;;;;;;;16.16;88.17;99161.13;111835;1196;66753;-84
2021/10/06 12:13:41;;;;;;;;;;;;;;;16.13;88.31;99162.52;111686;1196;61863;-84
2021/10/06 12:16:26;;;;;;;;;;;;;;;16.11;88.34;99164.80;111773;1196;64381;-83
2021/10/06 12:18:54;;;;;;;;;;;;;;;16.09;88.36;99165.37;111844;1195;61980;-83
2021/10/06 12:21:20;;;;;;;;;;;;;;;16.03;88.51;99167.44;111959;1196;61798;-83
2021/10/06 12:23:47;;;;;;;;;;;;;;;15.99;88.81;99167.98;111904;1195;61753;-83
2021/10/06 12:26:14;;;;;;;;;;;;;;;15.95;88.98;99167.77;111892;1195;61858;-82
2021/10/06 12:28:54;;;;;;;;;;;;;;;15.87;88.85;99168.45;111897;1195;73751;-82
2021/10/06 12:31:26;;;;;;;;;;;;;;;15.83;89.22;99172.38;111936;1195;61888;-82
2021/10/06 12:34:03;;;;;;;;;;;;;;;15.78;89.50;99172.45;112014;1195;61864;-84
2021/10/06 12:36:29;;;;;;;;;;;;;;;15.72;89.45;99175.25;111792;1195;66438;-83
2021/10/06 12:38:56;;;;;;;;;;;;;;;15.68;89.26;99174.85;111990;1195;61851;-83
2021/10/06 12:41:28;;;;;;;;;;;;;;;15.65;89.29;99175.30;111965;1195;63919;-82
2021/10/06 12:43:55;;;;;;;;;;;;;;;15.60;89.48;99175.73;111959;1195;61844;-83
2021/10/06 12:46:23;;;;;;;;;;;;;;;15.56;89.99;99177.89;111959;1195;61849;-83